sensor_id;sensor_type;location;lat;lon;timestamp;pressure;altitude;pressure_sealevel;temperature;humidity
40245;BME280;25963;42.694;23.600;2023-07-22T00:00:15;95110.91;;;22.87;84.90
40245;BME280;25963;42.694;23.600;2023-07-22T00:02:43;95148.34;;;23.16;84.57
40245;BME280;25963;42.694;23.600;2023-07-22T00:05:09;95157.00;;;23.13;85.72
40245;BME280;25963;42.694;23.600;2023-07-22T00:07:35;95152.94;;;22.83;87.20
40245;BME280;25963;42.694;23.600;2023-07-22T00:10:01;95143.34;;;22.77;87.60
40245;BME280;25963;42.694;23.600;2023-07-22T00:12:27;95146.53;;;22.79;87.73
40245;BME280;25963;42.694;23.600;2023-07-22T00:14:52;95147.69;;;22.73;87.68
40245;BME280;25963;42.694;23.600;2023-07-22T00:17:20;95158.13;;;22.93;88.28
40245;BME280;25963;42.694;23.600;2023-07-22T00:19:49;95143.75;;;22.84;88.16
40245;BME280;25963;42.694;23.600;2023-07-22T00:22:15;95149.81;;;22.95;87.32
40245;BME280;25963;42.694;23.600;2023-07-22T00:24:41;95127.47;;;22.94;87.25
40245;BME280;25963;42.694;23.600;2023-07-22T00:27:06;95159.78;;;23.08;87.25
40245;BME280;25963;42.694;23.600;2023-07-22T00:29:36;95141.78;;;22.90;88.29
40245;BME280;25963;42.694;23.600;2023-07-22T00:32:02;95147.94;;;22.76;89.27
40245;BME280;25963;42.694;23.600;2023-07-22T00:34:27;95151.66;;;22.94;89.04
40245;BME280;25963;42.694;23.600;2023-07-22T00:36:53;95141.84;;;23.04;88.34
40245;BME280;25963;42.694;23.600;2023-07-22T00:39:18;95149.72;;;22.81;89.42
40245;BME280;25963;42.694;23.600;2023-07-22T00:41:44;95142.28;;;22.59;91.00
40245;BME280;25963;42.694;23.600;2023-07-22T00:44:12;95130.16;;;22.62;91.26
40245;BME280;25963;42.694;23.600;2023-07-22T00:46:38;95147.16;;;22.57;91.32
40245;BME280;25963;42.694;23.600;2023-07-22T00:49:05;95144.19;;;22.40;92.97
40245;BME280;25963;42.694;23.600;2023-07-22T00:51:32;95163.66;;;22.50;93.79
40245;BME280;25963;42.694;23.600;2023-07-22T00:53:57;95162.44;;;22.43;94.68
40245;BME280;25963;42.694;23.600;2023-07-22T00:56:23;95151.53;;;22.53;94.13
40245;BME280;25963;42.694;23.600;2023-07-22T00:58:48;95150.50;;;22.49;94.54
40245;BME280;25963;42.694;23.600;2023-07-22T01:01:14;95153.16;;;22.35;96.13
40245;BME280;25963;42.694;23.600;2023-07-22T01:03:40;95186.25;;;22.49;96.09
40245;BME280;25963;42.694;23.600;2023-07-22T01:06:06;95162.19;;;22.58;94.80
40245;BME280;25963;42.694;23.600;2023-07-22T01:08:32;95172.88;;;22.63;94.92
40245;BME280;25963;42.694;23.600;2023-07-22T01:10:58;95147.41;;;22.42;95.82
40245;BME280;25963;42.694;23.600;2023-07-22T01:13:24;95164.97;;;22.53;96.18
40245;BME280;25963;42.694;23.600;2023-07-22T01:15:50;95173.06;;;22.67;95.93
40245;BME280;25963;42.694;23.600;2023-07-22T01:18:15;95162.28;;;22.53;96.48
40245;BME280;25963;42.694;23.600;2023-07-22T01:20:42;95157.16;;;22.38;97.62
40245;BME280;25963;42.694;23.600;2023-07-22T01:23:08;95147.91;;;22.44;97.77
40245;BME280;25963;42.694;23.600;2023-07-22T01:25:34;95138.16;;;22.48;97.31
40245;BME280;25963;42.694;23.600;2023-07-22T01:27:59;95141.97;;;22.47;98.06
40245;BME280;25963;42.694;23.600;2023-07-22T01:30:25;95148.03;;;22.52;97.98
40245;BME280;25963;42.694;23.600;2023-07-22T01:32:52;95144.84;;;22.50;97.69
40245;BME280;25963;42.694;23.600;2023-07-22T01:35:18;95131.88;;;22.39;97.90
40245;BME280;25963;42.694;23.600;2023-07-22T01:37:44;95158.28;;;22.31;100.00
40245;BME280;25963;42.694;23.600;2023-07-22T01:40:11;95144.00;;;22.17;100.00
40245;BME280;25963;42.694;23.600;2023-07-22T01:42:40;95131.69;;;21.92;100.00
40245;BME280;25963;42.694;23.600;2023-07-22T01:45:07;95148.41;;;22.08;100.00
40245;BME280;25963;42.694;23.600;2023-07-22T01:47:36;95134.84;;;22.18;100.00
40245;BME280;25963;42.694;23.600;2023-07-22T01:50:02;95111.16;;;22.01;100.00
40245;BME280;25963;42.694;23.600;2023-07-22T01:52:28;95117.97;;;21.94;100.00
40245;BME280;25963;42.694;23.600;2023-07-22T01:54:53;95119.84;;;21.74;100.00
40245;BME280;25963;42.694;23.600;2023-07-22T01:57:19;95112.50;;;21.61;100.00
40245;BME280;25963;42.694;23.600;2023-07-22T02:12:42;95132.34;;;21.12;100.00
40245;BME280;25963;42.694;23.600;2023-07-22T02:15:08;95121.00;;;21.20;100.00
40245;BME280;25963;42.694;23.600;2023-07-22T02:17:33;95157.59;;;21.35;100.00
40245;BME280;25963;42.694;23.600;2023-07-22T02:19:59;95116.72;;;21.19;100.00
40245;BME280;25963;42.694;23.600;2023-07-22T02:22:24;95122.72;;;21.11;100.00
40245;BME280;25963;42.694;23.600;2023-07-22T02:24:50;95140.91;;;21.14;100.00
40245;BME280;25963;42.694;23.600;2023-07-22T02:27:15;95125.34;;;21.16;100.00
40245;BME280;25963;42.694;23.600;2023-07-22T02:29:41;95140.34;;;21.17;100.00
40245;BME280;25963;42.694;23.600;2023-07-22T02:32:07;95139.91;;;21.34;100.00
40245;BME280;25963;42.694;23.600;2023-07-22T02:34:33;95143.06;;;21.12;100.00
40245;BME280;25963;42.694;23.600;2023-07-22T02:36:59;95109.28;;;21.11;100.00
40245;BME280;25963;42.694;23.600;2023-07-22T02:39:24;95126.09;;;21.22;100.00
40245;BME280;25963;42.694;23.600;2023-07-22T02:41:49;95105.19;;;20.94;100.00
40245;BME280;25963;42.694;23.600;2023-07-22T02:44:15;95142.44;;;20.96;100.00
40245;BME280;25963;42.694;23.600;2023-07-22T02:46:40;95124.00;;;20.89;100.00
40245;BME280;25963;42.694;23.600;2023-07-22T02:49:06;95108.81;;;20.80;100.00
40245;BME280;25963;42.694;23.600;2023-07-22T02:51:34;95144.44;;;20.85;100.00
40245;BME280;25963;42.694;23.600;2023-07-22T02:54:00;95123.66;;;20.67;100.00
40245;BME280;25963;42.694;23.600;2023-07-22T02:56:25;95163.63;;;20.97;100.00
40245;BME280;25963;42.694;23.600;2023-07-22T02:58:51;95128.56;;;20.89;100.00
40245;BME280;25963;42.694;23.600;2023-07-22T03:01:16;95112.34;;;20.75;100.00
40245;BME280;25963;42.694;23.600;2023-07-22T03:03:42;95134.31;;;20.77;100.00
40245;BME280;25963;42.694;23.600;2023-07-22T03:06:07;95153.50;;;20.89;100.00
40245;BME280;25963;42.694;23.600;2023-07-22T03:08:34;95145.34;;;21.00;100.00
40245;BME280;25963;42.694;23.600;2023-07-22T03:11:00;95129.22;;;20.75;100.00
40245;BME280;25963;42.694;23.600;2023-07-22T03:13:25;95118.75;;;20.79;100.00
40245;BME280;25963;42.694;23.600;2023-07-22T03:15:55;95115.81;;;20.75;100.00
40245;BME280;25963;42.694;23.600;2023-07-22T03:18:20;95127.28;;;20.81;100.00
40245;BME280;25963;42.694;23.600;2023-07-22T03:20:46;95142.63;;;21.05;100.00
40245;BME280;25963;42.694;23.600;2023-07-22T03:23:11;95118.75;;;20.79;100.00
40245;BME280;25963;42.694;23.600;2023-07-22T03:25:37;95147.41;;;21.08;100.00
40245;BME280;25963;42.694;23.600;2023-07-22T03:28:04;95162.22;;;21.29;100.00
40245;BME280;25963;42.694;23.600;2023-07-22T03:30:30;95146.50;;;21.17;100.00
40245;BME280;25963;42.694;23.600;2023-07-22T03:32:55;95156.56;;;21.07;100.00
40245;BME280;25963;42.694;23.600;2023-07-22T03:35:21;95138.56;;;21.07;100.00
40245;BME280;25963;42.694;23.600;2023-07-22T03:37:46;95152.38;;;21.19;100.00
40245;BME280;25963;42.694;23.600;2023-07-22T03:40:12;95171.50;;;21.42;100.00
40245;BME280;25963;42.694;23.600;2023-07-22T03:42:53;95178.81;;;21.31;100.00
40245;BME280;25963;42.694;23.600;2023-07-22T03:45:20;95179.25;;;21.43;100.00
40245;BME280;25963;42.694;23.600;2023-07-22T03:47:49;95157.59;;;21.35;100.00
40245;BME280;25963;42.694;23.600;2023-07-22T03:50:15;95148.31;;;21.27;100.00
40245;BME280;25963;42.694;23.600;2023-07-22T03:52:40;95151.19;;;21.36;100.00
40245;BME280;25963;42.694;23.600;2023-07-22T03:55:06;95187.09;;;21.64;100.00
40245;BME280;25963;42.694;23.600;2023-07-22T03:57:31;95163.03;;;21.78;100.00
40245;BME280;25963;42.694;23.600;2023-07-22T03:59:57;95178.66;;;21.95;100.00
40245;BME280;25963;42.694;23.600;2023-07-22T04:02:23;95162.50;;;21.57;100.00
40245;BME280;25963;42.694;23.600;2023-07-22T04:04:56;95165.38;;;21.84;100.00
40245;BME280;25963;42.694;23.600;2023-07-22T04:07:22;95190.72;;;22.16;100.00
40245;BME280;25963;42.694;23.600;2023-07-22T04:09:48;95178.91;;;22.55;100.00
40245;BME280;25963;42.694;23.600;2023-07-22T04:12:13;95161.59;;;23.27;98.52
40245;BME280;25963;42.694;23.600;2023-07-22T04:14:39;95172.03;;;24.25;93.63
40245;BME280;25963;42.694;23.600;2023-07-22T04:17:05;95168.03;;;25.03;86.80
40245;BME280;25963;42.694;23.600;2023-07-22T04:19:31;95169.72;;;25.84;80.83
40245;BME280;25963;42.694;23.600;2023-07-22T04:21:57;95187.31;;;26.65;76.64
40245;BME280;25963;42.694;23.600;2023-07-22T04:24:22;95176.44;;;27.35;72.60
40245;BME280;25963;42.694;23.600;2023-07-22T04:26:48;95171.06;;;27.64;71.44
40245;BME280;25963;42.694;23.600;2023-07-22T04:29:13;95171.44;;;28.43;67.56
40245;BME280;25963;42.694;23.600;2023-07-22T04:31:39;95171.56;;;28.67;66.06
40245;BME280;25963;42.694;23.600;2023-07-22T04:34:05;95180.94;;;29.12;64.74
40245;BME280;25963;42.694;23.600;2023-07-22T04:36:31;95162.28;;;28.27;67.49
40245;BME280;25963;42.694;23.600;2023-07-22T04:38:56;95187.00;;;28.76;66.26
40245;BME280;25963;42.694;23.600;2023-07-22T04:41:22;95161.38;;;29.19;63.83
40245;BME280;25963;42.694;23.600;2023-07-22T04:43:47;95180.50;;;29.92;62.03
40245;BME280;25963;42.694;23.600;2023-07-22T04:46:13;95180.47;;;30.17;59.97
40245;BME280;25963;42.694;23.600;2023-07-22T04:48:38;95169.59;;;30.29;59.26
40245;BME280;25963;42.694;23.600;2023-07-22T04:51:04;95200.09;;;30.35;58.50
40245;BME280;25963;42.694;23.600;2023-07-22T04:53:29;95197.44;;;30.51;56.98
40245;BME280;25963;42.694;23.600;2023-07-22T04:55:55;95206.72;;;30.62;57.47
40245;BME280;25963;42.694;23.600;2023-07-22T04:58:21;95181.75;;;30.84;56.15
40245;BME280;25963;42.694;23.600;2023-07-22T05:00:46;95195.28;;;31.25;55.45
40245;BME280;25963;42.694;23.600;2023-07-22T05:03:12;95158.16;;;31.20;53.72
40245;BME280;25963;42.694;23.600;2023-07-22T05:05:38;95192.25;;;31.14;54.37
40245;BME280;25963;42.694;23.600;2023-07-22T05:08:04;95200.00;;;31.56;54.14
40245;BME280;25963;42.694;23.600;2023-07-22T05:10:29;95175.56;;;31.59;54.59
40245;BME280;25963;42.694;23.600;2023-07-22T05:12:55;95193.25;;;31.66;53.01
40245;BME280;25963;42.694;23.600;2023-07-22T05:15:22;95196.94;;;31.73;52.11
40245;BME280;25963;42.694;23.600;2023-07-22T05:17:47;95206.44;;;31.79;53.38
40245;BME280;25963;42.694;23.600;2023-07-22T05:20:13;95180.09;;;31.24;52.43
40245;BME280;25963;42.694;23.600;2023-07-22T05:22:39;95203.28;;;31.77;53.21
40245;BME280;25963;42.694;23.600;2023-07-22T05:25:06;95209.78;;;31.73;52.11
40245;BME280;25963;42.694;23.600;2023-07-22T05:27:32;95190.00;;;31.92;51.87
40245;BME280;25963;42.694;23.600;2023-07-22T05:29:57;95185.34;;;32.08;51.11
40245;BME280;25963;42.694;23.600;2023-07-22T05:32:23;95181.63;;;32.00;50.06
40245;BME280;25963;42.694;23.600;2023-07-22T05:34:48;95192.38;;;31.93;50.32
40245;BME280;25963;42.694;23.600;2023-07-22T05:37:14;95182.78;;;31.52;51.56
40245;BME280;25963;42.694;23.600;2023-07-22T05:39:39;95218.13;;;31.48;52.48
40245;BME280;25963;42.694;23.600;2023-07-22T05:42:05;95198.25;;;31.20;53.60
40245;BME280;25963;42.694;23.600;2023-07-22T05:44:30;95192.22;;;32.02;53.19
40245;BME280;25963;42.694;23.600;2023-07-22T05:46:56;95208.03;;;32.12;50.95
40245;BME280;25963;42.694;23.600;2023-07-22T05:49:21;95197.75;;;32.41;51.86
40245;BME280;25963;42.694;23.600;2023-07-22T05:51:47;95201.81;;;31.96;52.28
40245;BME280;25963;42.694;23.600;2023-07-22T05:54:12;95181.13;;;31.47;52.64
40245;BME280;25963;42.694;23.600;2023-07-22T05:56:37;95206.69;;;31.43;54.24
40245;BME280;25963;42.694;23.600;2023-07-22T05:59:03;95199.66;;;31.13;55.08
40245;BME280;25963;42.694;23.600;2023-07-22T06:01:29;95202.63;;;30.80;57.43
40245;BME280;25963;42.694;23.600;2023-07-22T06:03:54;95216.22;;;30.80;56.95
40245;BME280;25963;42.694;23.600;2023-07-22T06:06:20;95206.84;;;31.50;53.64
40245;BME280;25963;42.694;23.600;2023-07-22T06:08:45;95193.69;;;30.67;56.79
40245;BME280;25963;42.694;23.600;2023-07-22T06:11:11;95210.84;;;31.84;56.43
40245;BME280;25963;42.694;23.600;2023-07-22T06:13:36;95224.81;;;31.82;52.57
40245;BME280;25963;42.694;23.600;2023-07-22T06:16:02;95219.34;;;32.30;51.21
40245;BME280;25963;42.694;23.600;2023-07-22T06:18:27;95233.25;;;32.41;49.96
40245;BME280;25963;42.694;23.600;2023-07-22T06:20:53;95217.44;;;32.66;50.72
40245;BME280;25963;42.694;23.600;2023-07-22T06:23:18;95228.34;;;33.01;48.08
40245;BME280;25963;42.694;23.600;2023-07-22T06:25:44;95241.13;;;33.16;49.50
40245;BME280;25963;42.694;23.600;2023-07-22T06:28:09;95220.22;;;33.24;45.67
40245;BME280;25963;42.694;23.600;2023-07-22T06:30:35;95244.13;;;33.50;46.08
40245;BME280;25963;42.694;23.600;2023-07-22T06:33:00;95250.16;;;33.59;46.76
40245;BME280;25963;42.694;23.600;2023-07-22T06:35:26;95251.00;;;33.60;47.85
40245;BME280;25963;42.694;23.600;2023-07-22T06:37:51;95246.72;;;33.62;48.85
40245;BME280;25963;42.694;23.600;2023-07-22T06:40:17;95260.00;;;33.22;47.82
40245;BME280;25963;42.694;23.600;2023-07-22T06:42:42;95234.41;;;33.72;48.71
40245;BME280;25963;42.694;23.600;2023-07-22T06:45:08;95246.81;;;34.12;43.97
40245;BME280;25963;42.694;23.600;2023-07-22T06:47:34;95261.34;;;34.43;45.00
40245;BME280;25963;42.694;23.600;2023-07-22T06:50:00;95253.06;;;34.62;43.37
40245;BME280;25963;42.694;23.600;2023-07-22T06:52:25;95262.50;;;34.65;43.00
40245;BME280;25963;42.694;23.600;2023-07-22T06:54:51;95245.00;;;34.46;43.72
40245;BME280;25963;42.694;23.600;2023-07-22T06:57:16;95243.31;;;34.38;46.42
40245;BME280;25963;42.694;23.600;2023-07-22T06:59:41;95252.59;;;34.57;47.22
40245;BME280;25963;42.694;23.600;2023-07-22T07:02:08;95245.19;;;34.34;45.29
40245;BME280;25963;42.694;23.600;2023-07-22T07:04:33;95248.34;;;34.59;45.63
40245;BME280;25963;42.694;23.600;2023-07-22T07:06:59;95249.03;;;34.29;44.40
40245;BME280;25963;42.694;23.600;2023-07-22T07:09:25;95247.25;;;34.41;47.79
40245;BME280;25963;42.694;23.600;2023-07-22T07:11:51;95244.94;;;34.43;46.81
40245;BME280;25963;42.694;23.600;2023-07-22T07:14:17;95241.88;;;34.48;47.51
40245;BME280;25963;42.694;23.600;2023-07-22T07:16:43;95230.63;;;34.26;44.94
40245;BME280;25963;42.694;23.600;2023-07-22T07:19:08;95229.97;;;34.37;46.41
40245;BME280;25963;42.694;23.600;2023-07-22T07:21:34;95241.88;;;34.48;47.14
40245;BME280;25963;42.694;23.600;2023-07-22T07:24:00;95234.78;;;34.43;44.54
40245;BME280;25963;42.694;23.600;2023-07-22T07:26:25;95229.63;;;34.38;45.91
40245;BME280;25963;42.694;23.600;2023-07-22T07:28:53;95226.41;;;34.33;46.65
40245;BME280;25963;42.694;23.600;2023-07-22T07:31:19;95233.44;;;33.84;49.43
40245;BME280;25963;42.694;23.600;2023-07-22T07:33:45;95235.75;;;34.05;48.79
40245;BME280;25963;42.694;23.600;2023-07-22T07:36:10;95212.56;;;33.99;49.63
40245;BME280;25963;42.694;23.600;2023-07-22T07:38:36;95213.88;;;33.62;45.62
40245;BME280;25963;42.694;23.600;2023-07-22T07:41:03;95207.44;;;33.74;49.12
40245;BME280;25963;42.694;23.600;2023-07-22T07:43:29;95209.09;;;34.02;54.66
40245;BME280;25963;42.694;23.600;2023-07-22T07:46:23;95218.34;;;34.17;44.93
40245;BME280;25963;42.694;23.600;2023-07-22T07:48:50;95209.94;;;34.29;50.65
40245;BME280;25963;42.694;23.600;2023-07-22T07:51:18;95213.66;;;34.17;49.29
40245;BME280;25963;42.694;23.600;2023-07-22T07:53:45;95211.28;;;33.93;46.51
40245;BME280;25963;42.694;23.600;2023-07-22T07:56:12;95215.63;;;34.17;47.11
40245;BME280;25963;42.694;23.600;2023-07-22T07:58:39;95217.97;;;34.18;47.79
40245;BME280;25963;42.694;23.600;2023-07-22T08:01:05;95215.91;;;33.89;46.30
40245;BME280;25963;42.694;23.600;2023-07-22T08:03:32;95201.25;;;34.00;51.40
40245;BME280;25963;42.694;23.600;2023-07-22T08:05:57;95211.16;;;34.31;50.50
40245;BME280;25963;42.694;23.600;2023-07-22T08:08:23;95210.84;;;34.40;48.88
40245;BME280;25963;42.694;23.600;2023-07-22T08:13:27;95186.06;;;34.03;42.98
40245;BME280;25963;42.694;23.600;2023-07-22T08:15:55;95206.34;;;34.25;45.80
40245;BME280;25963;42.694;23.600;2023-07-22T08:18:20;95205.06;;;34.45;43.65
40245;BME280;25963;42.694;23.600;2023-07-22T08:20:46;95194.44;;;34.67;41.87
40245;BME280;25963;42.694;23.600;2023-07-22T08:23:13;95197.03;;;34.86;42.71
40245;BME280;25963;42.694;23.600;2023-07-22T08:25:38;95188.50;;;34.91;41.64
40245;BME280;25963;42.694;23.600;2023-07-22T08:28:04;95197.59;;;34.42;43.33
40245;BME280;25963;42.694;23.600;2023-07-22T08:30:29;95181.31;;;33.77;43.02
40245;BME280;25963;42.694;23.600;2023-07-22T08:32:55;95194.03;;;34.38;47.65
40245;BME280;25963;42.694;23.600;2023-07-22T08:35:20;95190.97;;;34.43;43.61
40245;BME280;25963;42.694;23.600;2023-07-22T08:37:47;95187.69;;;34.34;43.25
40245;BME280;25963;42.694;23.600;2023-07-22T08:40:13;95201.03;;;34.09;44.43
40245;BME280;25963;42.694;23.600;2023-07-22T08:42:40;95209.69;;;33.92;45.19
40245;BME280;25963;42.694;23.600;2023-07-22T08:45:09;95178.97;;;34.25;45.33
40245;BME280;25963;42.694;23.600;2023-07-22T08:47:44;95191.91;;;34.54;48.93
40245;BME280;25963;42.694;23.600;2023-07-22T08:50:10;95182.91;;;34.84;46.87
40245;BME280;25963;42.694;23.600;2023-07-22T08:52:37;95184.00;;;35.06;48.79
40245;BME280;25963;42.694;23.600;2023-07-22T08:55:03;95172.88;;;35.29;45.76
40245;BME280;25963;42.694;23.600;2023-07-22T08:57:29;95169.50;;;35.47;42.82
40245;BME280;25963;42.694;23.600;2023-07-22T08:59:56;95154.78;;;35.62;42.68
40245;BME280;25963;42.694;23.600;2023-07-22T09:02:23;95161.56;;;35.34;40.61
40245;BME280;25963;42.694;23.600;2023-07-22T09:04:49;95163.47;;;34.96;40.31
40245;BME280;25963;42.694;23.600;2023-07-22T09:07:16;95142.75;;;34.99;42.92
40245;BME280;25963;42.694;23.600;2023-07-22T09:09:44;95155.31;;;35.37;41.74
40245;BME280;25963;42.694;23.600;2023-07-22T09:12:11;95138.41;;;34.94;40.88
40245;BME280;25963;42.694;23.600;2023-07-22T09:14:37;95161.31;;;34.79;42.66
40245;BME280;25963;42.694;23.600;2023-07-22T09:17:04;95166.56;;;35.25;40.54
40245;BME280;25963;42.694;23.600;2023-07-22T09:19:30;95153.69;;;35.70;40.47
40245;BME280;25963;42.694;23.600;2023-07-22T09:21:55;95148.00;;;35.93;38.13
40245;BME280;25963;42.694;23.600;2023-07-22T09:24:25;95152.03;;;36.06;37.65
40245;BME280;25963;42.694;23.600;2023-07-22T09:26:53;95132.06;;;35.61;38.01
40245;BME280;25963;42.694;23.600;2023-07-22T09:29:32;95136.00;;;35.64;37.16
40245;BME280;25963;42.694;23.600;2023-07-22T09:31:58;95126.94;;;35.60;37.23
40245;BME280;25963;42.694;23.600;2023-07-22T09:34:24;95135.84;;;35.98;42.57
40245;BME280;25963;42.694;23.600;2023-07-22T09:36:54;95128.66;;;36.38;39.71
40245;BME280;25963;42.694;23.600;2023-07-22T09:39:20;95131.31;;;36.20;39.98
40245;BME280;25963;42.694;23.600;2023-07-22T09:41:46;95126.66;;;36.24;42.15
40245;BME280;25963;42.694;23.600;2023-07-22T09:44:11;95120.38;;;36.23;35.53
40245;BME280;25963;42.694;23.600;2023-07-22T09:46:40;95112.25;;;36.45;40.67
40245;BME280;25963;42.694;23.600;2023-07-22T09:49:08;95122.00;;;36.35;36.50
40245;BME280;25963;42.694;23.600;2023-07-22T09:51:36;95111.94;;;36.57;37.87
40245;BME280;25963;42.694;23.600;2023-07-22T09:54:04;95115.94;;;36.77;39.82
40245;BME280;25963;42.694;23.600;2023-07-22T09:56:30;95099.03;;;36.68;39.38
40245;BME280;25963;42.694;23.600;2023-07-22T09:58:58;95117.13;;;36.80;35.79
40245;BME280;25963;42.694;23.600;2023-07-22T10:01:24;95120.38;;;37.11;37.13
40245;BME280;25963;42.694;23.600;2023-07-22T10:03:54;95108.22;;;37.19;38.17
40245;BME280;25963;42.694;23.600;2023-07-22T10:06:26;95091.28;;;37.03;35.07
40245;BME280;25963;42.694;23.600;2023-07-22T10:08:53;95105.34;;;36.83;35.14
40245;BME280;25963;42.694;23.600;2023-07-22T10:11:22;95111.63;;;36.80;35.98
40245;BME280;25963;42.694;23.600;2023-07-22T10:13:48;95110.84;;;36.87;34.63
40245;BME280;25963;42.694;23.600;2023-07-22T10:16:13;95109.69;;;36.88;36.44
40245;BME280;25963;42.694;23.600;2023-07-22T10:18:40;95111.25;;;36.05;35.38
40245;BME280;25963;42.694;23.600;2023-07-22T10:21:08;95105.97;;;36.48;39.94
40245;BME280;25963;42.694;23.600;2023-07-22T10:23:35;95081.75;;;36.71;39.77
40245;BME280;25963;42.694;23.600;2023-07-22T10:26:01;95107.03;;;37.13;37.40
40245;BME280;25963;42.694;23.600;2023-07-22T10:28:29;95114.53;;;37.48;36.12
40245;BME280;25963;42.694;23.600;2023-07-22T10:30:54;95103.13;;;37.32;34.23
40245;BME280;25963;42.694;23.600;2023-07-22T10:33:22;95110.59;;;37.35;35.78
40245;BME280;25963;42.694;23.600;2023-07-22T10:36:03;95100.00;;;37.44;38.27
40245;BME280;25963;42.694;23.600;2023-07-22T10:38:30;95110.59;;;37.31;35.16
40245;BME280;25963;42.694;23.600;2023-07-22T10:40:56;95099.97;;;37.30;35.79
40245;BME280;25963;42.694;23.600;2023-07-22T10:45:56;95107.47;;;37.43;41.51
40245;BME280;25963;42.694;23.600;2023-07-22T10:48:27;95100.41;;;37.75;33.56
40245;BME280;25963;42.694;23.600;2023-07-22T10:51:00;95076.81;;;37.88;37.75
40245;BME280;25963;42.694;23.600;2023-07-22T10:53:30;95096.09;;;37.74;30.70
40245;BME280;25963;42.694;23.600;2023-07-22T10:58:33;95092.09;;;38.25;35.20
40245;BME280;25963;42.694;23.600;2023-07-22T11:01:24;95081.84;;;38.32;33.63
40245;BME280;25963;42.694;23.600;2023-07-22T11:04:23;95081.53;;;37.91;29.48
40245;BME280;25963;42.694;23.600;2023-07-22T11:07:04;95056.72;;;38.02;35.62
40245;BME280;25963;42.694;23.600;2023-07-22T11:12:00;95073.97;;;38.27;31.68
40245;BME280;25963;42.694;23.600;2023-07-22T11:14:28;95080.31;;;38.21;31.76
40245;BME280;25963;42.694;23.600;2023-07-22T11:16:55;95080.22;;;38.35;32.57
40245;BME280;25963;42.694;23.600;2023-07-22T11:19:23;95067.13;;;38.68;32.88
40245;BME280;25963;42.694;23.600;2023-07-22T11:21:52;95075.50;;;38.50;30.90
40245;BME280;25963;42.694;23.600;2023-07-22T11:24:19;95078.69;;;38.45;28.39
40245;BME280;25963;42.694;23.600;2023-07-22T11:26:45;95062.88;;;38.59;30.14
40245;BME280;25963;42.694;23.600;2023-07-22T11:29:12;95036.97;;;38.32;30.92
40245;BME280;25963;42.694;23.600;2023-07-22T11:31:39;95047.22;;;38.28;30.29
40245;BME280;25963;42.694;23.600;2023-07-22T11:34:09;95052.59;;;38.64;31.79
40245;BME280;25963;42.694;23.600;2023-07-22T11:36:35;95055.31;;;38.71;32.50
40245;BME280;25963;42.694;23.600;2023-07-22T11:39:08;95047.03;;;38.71;31.96
40245;BME280;25963;42.694;23.600;2023-07-22T11:41:35;95040.34;;;38.75;30.96
40245;BME280;25963;42.694;23.600;2023-07-22T11:44:02;95043.47;;;38.85;28.66
40245;BME280;25963;42.694;23.600;2023-07-22T11:46:28;95046.22;;;38.81;31.00
40245;BME280;25963;42.694;23.600;2023-07-22T11:48:55;95046.59;;;38.87;29.05
40245;BME280;25963;42.694;23.600;2023-07-22T11:51:24;95045.19;;;38.53;29.71
40245;BME280;25963;42.694;23.600;2023-07-22T11:53:51;95037.38;;;38.23;30.25
40245;BME280;25963;42.694;23.600;2023-07-22T11:56:27;95031.50;;;38.25;31.78
40245;BME280;25963;42.694;23.600;2023-07-22T11:58:57;95024.78;;;38.26;31.09
40245;BME280;25963;42.694;23.600;2023-07-22T12:01:23;95036.63;;;38.26;30.23
40245;BME280;25963;42.694;23.600;2023-07-22T12:03:54;95026.09;;;37.75;32.14
40245;BME280;25963;42.694;23.600;2023-07-22T12:06:25;95026.81;;;38.18;33.24
40245;BME280;25963;42.694;23.600;2023-07-22T12:08:51;95016.94;;;38.24;32.34
40245;BME280;25963;42.694;23.600;2023-07-22T12:11:23;95021.34;;;37.93;30.43
40245;BME280;25963;42.694;23.600;2023-07-22T12:14:13;95018.22;;;37.87;31.96
40245;BME280;25963;42.694;23.600;2023-07-22T12:16:40;95024.88;;;38.11;30.11
40245;BME280;25963;42.694;23.600;2023-07-22T12:19:07;95016.25;;;37.88;31.86
40245;BME280;25963;42.694;23.600;2023-07-22T12:21:33;94993.88;;;37.64;32.13
40245;BME280;25963;42.694;23.600;2023-07-22T12:23:59;95016.69;;;37.43;32.35
40245;BME280;25963;42.694;23.600;2023-07-22T12:26:25;95005.59;;;36.68;32.09
40245;BME280;25963;42.694;23.600;2023-07-22T12:28:50;95009.41;;;36.35;32.86
40245;BME280;25963;42.694;23.600;2023-07-22T12:31:16;95004.22;;;36.12;32.19
40245;BME280;25963;42.694;23.600;2023-07-22T12:33:42;94990.38;;;35.94;32.39
40245;BME280;25963;42.694;23.600;2023-07-22T12:36:07;94998.09;;;35.71;33.10
40245;BME280;25963;42.694;23.600;2023-07-22T12:38:33;95001.00;;;36.03;33.34
40245;BME280;25963;42.694;23.600;2023-07-22T12:40:58;94995.28;;;36.29;35.70
40245;BME280;25963;42.694;23.600;2023-07-22T12:43:24;95003.84;;;36.17;34.17
40245;BME280;25963;42.694;23.600;2023-07-22T12:45:49;94996.00;;;36.19;35.11
40245;BME280;25963;42.694;23.600;2023-07-22T12:48:16;94981.13;;;36.31;32.90
40245;BME280;25963;42.694;23.600;2023-07-22T12:50:42;94993.44;;;36.69;33.38
40245;BME280;25963;42.694;23.600;2023-07-22T12:53:08;94984.84;;;36.89;35.64
40245;BME280;25963;42.694;23.600;2023-07-22T12:55:33;94971.75;;;36.43;32.90
40245;BME280;25963;42.694;23.600;2023-07-22T12:57:59;94987.81;;;36.33;32.87
40245;BME280;25963;42.694;23.600;2023-07-22T13:00:24;94992.13;;;36.34;34.02
40245;BME280;25963;42.694;23.600;2023-07-22T13:02:50;94986.63;;;36.27;34.07
40245;BME280;25963;42.694;23.600;2023-07-22T13:05:15;94980.84;;;36.54;33.43
40245;BME280;25963;42.694;23.600;2023-07-22T13:07:41;94975.75;;;36.56;33.95